Time;durP1;ratioP1;P1;durP2;ratioP2;P2;SDS_P1;SDS_P2;PMS_P1;PMS_P2;Temp;Humidity;BMP_temperature;BMP_pressure;BME280_temperature;BME280_humidity;BME280_pressure;Samples;Min_cycle;Max_cycle;Signal;HPM_P1;HPM_P2
2021/12/05 00:17:35;;;;;;;26.93;10.37;;;;;;;4.80;100.00;96060.63;5068651;28;20836;-37
2021/12/05 00:22:42;;;;;;;23.03;13.63;;;;;;;4.72;100.00;96053.81;5103836;28;20491;-37
2021/12/05 00:25:13;;;;;;;19.23;10.67;;;;;;;4.68;100.00;96063.16;5110819;28;20450;-37
2021/12/05 00:27:45;;;;;;;17.77;10.70;;;;;;;4.65;100.00;96053.88;5111122;28;20422;-37
2021/12/05 00:30:35;;;;;;;17.63;9.43;;;;;;;4.62;100.00;96053.50;5111088;28;20786;-37
2021/12/05 00:33:19;;;;;;;25.20;12.07;;;;;;;4.68;100.00;96047.38;5110689;28;20430;-37
2021/12/05 00:47:29;;;;;;;23.40;11.57;;;;;;;4.37;100.00;96059.59;5110389;28;20433;-37
2021/12/05 00:50:12;;;;;;;29.47;10.70;;;;;;;4.32;100.00;96056.78;5110393;28;20431;-37
2021/12/05 00:53:10;;;;;;;20.70;10.37;;;;;;;4.26;100.00;96057.66;5110373;28;20429;-37
2021/12/05 00:55:57;;;;;;;24.80;9.87;;;;;;;4.36;100.00;96046.66;5109916;28;20509;-38
2021/12/05 01:04:25;;;;;;;19.57;9.37;;;;;;;4.48;100.00;96045.72;5110424;28;20916;-37
2021/12/05 01:07:13;;;;;;;18.10;10.57;;;;;;;4.41;100.00;96037.13;5104692;28;20435;-37
2021/12/05 01:09:47;;;;;;;20.53;8.83;;;;;;;4.22;100.00;96043.34;5096450;28;20463;-37
2021/12/05 01:12:31;;;;;;;25.93;10.50;;;;;;;4.15;100.00;96037.31;5096647;28;20789;-37
2021/12/05 01:15:04;;;;;;;15.10;9.20;;;;;;;4.17;100.00;96032.66;5096517;28;20435;-37
2021/12/05 01:17:40;;;;;;;23.10;11.90;;;;;;;4.20;100.00;96026.97;5096585;28;20427;-37
2021/12/05 01:20:13;;;;;;;24.00;12.03;;;;;;;4.15;100.00;96034.69;5096232;28;20431;-37
2021/12/05 01:22:47;;;;;;;26.20;12.20;;;;;;;4.10;100.00;96028.25;5096173;28;20907;-37
2021/12/05 01:25:23;;;;;;;23.40;11.77;;;;;;;4.13;100.00;96023.56;5096128;28;20442;-37
2021/12/05 01:27:58;;;;;;;33.33;14.33;;;;;;;4.15;100.00;96027.63;5096077;28;20520;-37
2021/12/05 01:30:34;;;;;;;34.63;13.80;;;;;;;4.21;100.00;96015.44;5096306;28;20453;-37
2021/12/05 01:33:08;;;;;;;30.33;12.77;;;;;;;4.29;100.00;96023.06;5096320;28;20438;-37
2021/12/05 01:35:52;;;;;;;35.80;12.90;;;;;;;4.33;100.00;96018.97;5095851;28;21039;-37
2021/12/05 01:38:30;;;;;;;28.73;13.50;;;;;;;4.28;100.00;96021.44;5095919;28;20518;-37
2021/12/05 01:41:11;;;;;;;32.87;13.40;;;;;;;4.22;100.00;96020.50;5096149;28;20782;-38
2021/12/05 01:49:44;;;;;;;23.47;9.20;;;;;;;3.88;100.00;96011.25;5095365;28;20454;-37
2021/12/05 01:52:37;;;;;;;27.87;13.23;;;;;;;3.80;100.00;96003.63;5095634;28;20458;-37
2021/12/05 01:58:27;;;;;;;21.90;9.33;;;;;;;3.88;100.00;96017.28;5053257;28;20429;-37
2021/12/05 02:01:22;;;;;;;24.63;11.27;;;;;;;3.88;100.00;96024.38;5053945;28;20476;-37
2021/12/05 02:15:25;;;;;;;29.87;13.53;;;;;;;4.14;100.00;96001.56;5111307;28;20932;-39
2021/12/05 02:29:42;;;;;;;27.50;9.90;;;;;;;4.23;100.00;95997.63;5068817;28;20791;-41
2021/12/05 02:35:16;;;;;;;35.93;14.60;;;;;;;4.23;100.00;96008.16;5035462;28;20516;-39
2021/12/05 02:43:31;;;;;;;29.43;11.67;;;;;;;4.20;100.00;96003.34;5104103;28;20491;-37
2021/12/05 02:46:02;;;;;;;31.80;16.07;;;;;;;4.20;100.00;96019.09;5111249;28;20485;-37
2021/12/05 02:48:31;;;;;;;21.20;12.50;;;;;;;4.15;100.00;96024.16;5111260;28;20928;-38
2021/12/05 02:51:00;;;;;;;14.40;9.03;;;;;;;4.20;100.00;96011.22;5111202;28;20446;-37
2021/12/05 02:53:35;;;;;;;24.50;11.80;;;;;;;4.22;100.00;96017.06;5111114;28;20468;-37
2021/12/05 02:56:05;;;;;;;28.40;12.80;;;;;;;4.22;100.00;96027.56;5111199;28;20430;-37
2021/12/05 02:58:40;;;;;;;34.00;17.33;;;;;;;4.20;100.00;96024.34;5110912;28;20445;-37
2021/12/05 03:01:16;;;;;;;19.93;9.30;;;;;;;4.17;100.00;96009.00;5111324;28;20449;-37
2021/12/05 03:03:44;;;;;;;19.97;9.33;;;;;;;4.12;100.00;96012.28;5111302;28;20454;-38
2021/12/05 03:06:17;;;;;;;21.80;10.23;;;;;;;4.12;100.00;96001.75;5111224;28;20525;-37
2021/12/05 03:08:45;;;;;;;31.47;11.90;;;;;;;4.14;100.00;96009.44;5110883;28;20434;-37
2021/12/05 03:11:16;;;;;;;18.80;9.57;;;;;;;4.11;100.00;96010.69;5110791;28;20450;-37
2021/12/05 03:13:43;;;;;;;21.50;9.50;;;;;;;4.00;100.00;95993.78;5111140;28;20440;-37
2021/12/05 03:16:13;;;;;;;31.60;9.83;;;;;;;4.04;100.00;96009.91;5110990;28;20552;-37
2021/12/05 03:18:41;;;;;;;21.53;10.40;;;;;;;4.17;100.00;96012.44;5110607;28;20438;-38
2021/12/05 03:21:09;;;;;;;27.70;10.83;;;;;;;4.20;100.00;96008.59;5110601;28;20477;-38
2021/12/05 03:23:37;;;;;;;18.73;8.93;;;;;;;4.20;100.00;96019.91;5110570;28;20937;-37
2021/12/05 03:26:06;;;;;;;26.20;12.83;;;;;;;4.16;100.00;96025.78;5110531;28;20921;-38
2021/12/05 03:28:35;;;;;;;27.90;9.73;;;;;;;4.18;100.00;96034.28;5110495;28;20438;-38
2021/12/05 03:31:03;;;;;;;20.97;8.20;;;;;;;4.15;100.00;96029.44;5110751;28;20442;-37
2021/12/05 03:33:31;;;;;;;13.07;7.00;;;;;;;4.09;100.00;96031.09;5110316;28;20960;-38
2021/12/05 03:35:59;;;;;;;23.60;8.90;;;;;;;4.06;100.00;96040.19;5110311;28;20874;-38
2021/12/05 03:38:26;;;;;;;14.57;7.40;;;;;;;4.04;100.00;96042.25;5109980;28;20435;-38
2021/12/05 03:40:54;;;;;;;13.57;8.63;;;;;;;3.95;100.00;96042.72;5110168;28;20485;-38
2021/12/05 03:43:22;;;;;;;12.10;5.77;;;;;;;3.92;100.00;96030.81;5110414;28;20799;-38
2021/12/05 03:45:55;;;;;;;12.67;7.70;;;;;;;3.89;100.00;96033.84;5110119;28;20442;-38
2021/12/05 03:48:24;;;;;;;12.97;6.07;;;;;;;3.88;100.00;96042.75;5110925;28;20423;-38
2021/12/05 03:50:51;;;;;;;33.07;13.70;;;;;;;3.96;100.00;96045.13;5104151;28;20453;-38
2021/12/05 03:53:20;;;;;;;21.37;11.67;;;;;;;3.94;100.00;96031.41;5096656;28;20465;-38
2021/12/05 03:55:51;;;;;;;29.13;11.93;;;;;;;3.93;100.00;96029.78;5096614;28;20443;-38
2021/12/05 03:58:19;;;;;;;24.70;11.20;;;;;;;3.96;100.00;96031.19;5096686;28;20492;-37
2021/12/05 04:00:51;;;;;;;21.33;10.17;;;;;;;3.94;100.00;96030.63;5096481;28;20486;-37
2021/12/05 04:03:20;;;;;;;19.23;8.43;;;;;;;3.94;100.00;96039.28;5096292;28;20442;-37
2021/12/05 04:05:49;;;;;;;14.27;7.60;;;;;;;3.91;100.00;96042.31;5096084;28;20446;-37
2021/12/05 04:08:19;;;;;;;19.50;8.30;;;;;;;3.92;100.00;96036.06;5096444;28;20465;-37
2021/12/05 04:10:52;;;;;;;18.40;8.67;;;;;;;3.75;100.00;96027.09;5096000;28;20525;-37
2021/12/05 04:13:20;;;;;;;13.03;7.20;;;;;;;3.64;100.00;96005.75;5096050;28;21035;-37
2021/12/05 04:15:47;;;;;;;30.47;8.17;;;;;;;3.75;100.00;96030.53;5096254;28;20447;-37
2021/12/05 04:18:17;;;;;;;17.70;8.00;;;;;;;3.65;100.00;96027.53;5095830;28;20448;-37
2021/12/05 04:20:45;;;;;;;16.87;8.40;;;;;;;3.60;100.00;96025.56;5095780;28;21054;-37
2021/12/05 04:23:13;;;;;;;17.80;8.30;;;;;;;3.53;100.00;96035.28;5096043;28;20439;-37
2021/12/05 04:25:40;;;;;;;38.37;7.77;;;;;;;3.58;100.00;96042.53;5096933;28;20511;-37
2021/12/05 04:28:10;;;;;;;15.00;7.70;;;;;;;3.54;100.00;96038.72;5095660;28;20439;-37
2021/12/05 04:30:38;;;;;;;13.73;7.43;;;;;;;3.53;100.00;96037.91;5096032;28;20447;-37
2021/12/05 04:33:06;;;;;;;15.00;5.80;;;;;;;3.48;100.00;96042.97;5095685;28;20443;-36
2021/12/05 04:35:35;;;;;;;20.73;6.77;;;;;;;3.32;100.00;96043.47;5095921;28;20515;-37
2021/12/05 04:38:02;;;;;;;18.37;7.70;;;;;;;3.30;100.00;96037.63;5095859;28;20810;-36
2021/12/05 04:40:32;;;;;;;18.03;7.63;;;;;;;3.25;100.00;96043.50;5095257;28;20981;-37
2021/12/05 04:43:00;;;;;;;12.57;6.93;;;;;;;3.23;100.00;96032.41;5095758;28;20466;-37
2021/12/05 04:45:30;;;;;;;15.87;7.53;;;;;;;3.19;100.00;96045.13;5095650;28;20451;-37
2021/12/05 04:47:58;;;;;;;11.97;7.43;;;;;;;3.21;100.00;96047.56;5095626;28;20443;-37
2021/12/05 04:50:26;;;;;;;18.30;8.07;;;;;;;3.21;100.00;96031.81;5095196;28;20443;-37
2021/12/05 04:52:56;;;;;;;14.83;7.20;;;;;;;3.20;100.00;96023.13;5095242;28;20950;-37
2021/12/05 04:55:23;;;;;;;18.33;7.90;;;;;;;3.35;100.00;96045.66;5095137;28;20449;-37
2021/12/05 04:57:51;;;;;;;17.93;8.17;;;;;;;3.11;100.00;96011.25;5095118;28;20526;-37
2021/12/05 05:00:21;;;;;;;17.10;9.33;;;;;;;3.20;100.00;96038.84;5095334;28;20497;-37
2021/12/05 05:02:48;;;;;;;14.60;8.00;;;;;;;2.93;100.00;96035.53;5094090;28;20865;-38
2021/12/05 05:05:16;;;;;;;17.00;7.20;;;;;;;2.92;100.00;96027.88;5095008;28;20949;-37
2021/12/05 05:07:44;;;;;;;25.77;11.27;;;;;;;2.97;100.00;96041.16;5094896;28;20534;-38
2021/12/05 05:10:18;;;;;;;29.83;8.60;;;;;;;3.02;100.00;96044.78;5094931;28;20485;-38
2021/12/05 05:12:45;;;;;;;14.00;7.20;;;;;;;3.06;100.00;96040.72;5094910;28;20428;-37
2021/12/05 05:15:18;;;;;;;16.07;9.00;;;;;;;3.08;100.00;96032.66;5095167;28;20482;-38
2021/12/05 05:17:45;;;;;;;26.77;10.80;;;;;;;3.15;100.00;96043.94;5094866;28;20432;-39
2021/12/05 05:20:21;;;;;;;31.50;13.27;;;;;;;3.21;100.00;96045.72;5094926;28;20536;-40
2021/12/05 05:23:03;;;;;;;22.13;11.90;;;;;;;3.23;100.00;96046.31;5095075;28;20890;-39
2021/12/05 05:28:56;;;;;;;17.20;9.00;;;;;;;3.30;100.00;96045.50;5083758;28;20445;-40
2021/12/05 05:40:08;;;;;;;12.20;7.37;;;;;;;3.33;100.00;96042.44;5094298;28;20574;-37
2021/12/05 05:45:33;;;;;;;25.20;9.33;;;;;;;3.34;100.00;96046.69;5094634;28;21020;-38
2021/12/05 05:48:15;;;;;;;79.50;10.33;;;;;;;3.28;100.00;96045.69;5094292;28;20942;-37
2021/12/05 05:50:44;;;;;;;13.73;6.67;;;;;;;3.30;100.00;96040.25;5094506;28;20419;-37
2021/12/05 05:53:12;;;;;;;43.17;9.63;;;;;;;3.17;100.00;96031.41;5094979;28;20443;-37
2021/12/05 05:55:40;;;;;;;40.97;13.67;;;;;;;3.30;100.00;96046.28;5094286;28;20530;-37
2021/12/05 05:58:12;;;;;;;33.23;15.47;;;;;;;3.32;100.00;96038.22;5093991;28;20446;-38
2021/12/05 06:00:52;;;;;;;32.43;19.83;;;;;;;3.30;100.00;96037.63;5093873;28;20989;-37
2021/12/05 06:03:21;;;;;;;23.20;10.50;;;;;;;3.28;100.00;96043.06;5094018;28;20431;-37
2021/12/05 06:05:50;;;;;;;39.07;12.27;;;;;;;3.34;100.00;96052.75;5094222;28;20526;-37
2021/12/05 06:08:18;;;;;;;28.50;13.17;;;;;;;3.35;100.00;96059.59;5094177;28;20450;-37
2021/12/05 06:10:46;;;;;;;27.47;9.03;;;;;;;3.39;100.00;96060.78;5093836;28;20443;-38
2021/12/05 06:13:18;;;;;;;24.07;11.33;;;;;;;3.41;100.00;96052.72;5093908;28;20442;-37
2021/12/05 06:15:45;;;;;;;24.93;10.83;;;;;;;3.42;100.00;96055.13;5093874;28;20522;-37
2021/12/05 06:18:13;;;;;;;56.83;11.80;;;;;;;3.41;100.00;96052.72;5094019;28;20445;-37
2021/12/05 06:20:40;;;;;;;31.17;11.30;;;;;;;3.36;100.00;96042.03;5092641;28;20494;-39
2021/12/05 06:23:09;;;;;;;24.50;11.13;;;;;;;3.31;100.00;96041.84;5091630;28;20537;-38
2021/12/05 06:25:39;;;;;;;31.03;12.73;;;;;;;3.39;100.00;96044.25;5091614;28;20451;-38
2021/12/05 06:28:11;;;;;;;24.20;10.70;;;;;;;3.40;100.00;96056.31;5091570;28;20439;-38
2021/12/05 06:30:48;;;;;;;37.60;13.27;;;;;;;3.44;100.00;96060.97;5091560;28;20554;-38
2021/12/05 06:41:52;;;;;;;27.93;8.17;;;;;;;3.36;100.00;96049.91;5075378;28;20548;-38
2021/12/05 06:47:09;;;;;;;20.20;8.27;;;;;;;3.22;100.00;96049.16;5091120;28;20469;-38
2021/12/05 06:49:36;;;;;;;14.70;7.97;;;;;;;3.23;100.00;96051.56;5091740;28;20434;-38
2021/12/05 06:52:04;;;;;;;21.73;9.27;;;;;;;3.28;100.00;96059.63;5091653;28;20523;-38
2021/12/05 06:54:31;;;;;;;63.53;22.70;;;;;;;3.30;100.00;96058.63;5091569;28;20450;-38
2021/12/05 06:56:59;;;;;;;287.73;99.40;;;;;;;3.42;100.00;96080.53;5091307;28;20450;-39
2021/12/05 06:59:26;;;;;;;37.17;20.00;;;;;;;3.44;100.00;96071.47;5091250;28;20455;-42
2021/12/05 07:01:53;;;;;;;33.90;18.33;;;;;;;3.36;100.00;96060.41;5090962;28;20989;-40
2021/12/05 07:04:45;;;;;;;51.83;13.23;;;;;;;3.51;100.00;96057.50;5091249;28;20445;-38
2021/12/05 07:07:18;;;;;;;26.80;13.37;;;;;;;3.46;100.00;96052.88;5091512;28;20435;-38
2021/12/05 07:09:47;;;;;;;58.17;22.13;;;;;;;3.47;100.00;96051.88;5091143;28;20432;-38
2021/12/05 07:15:01;;;;;;;16.37;9.53;;;;;;;3.40;100.00;96051.91;5090565;28;21086;-38
2021/12/05 07:20:07;;;;;;;9.83;5.83;;;;;;;3.49;100.00;96060.34;5091087;28;20467;-38
2021/12/05 07:22:43;;;;;;;20.07;7.73;;;;;;;3.52;100.00;96057.28;5091469;28;20194;-38
2021/12/05 07:25:24;;;;;;;22.23;8.37;;;;;;;3.59;100.00;96052.84;5090999;28;20471;-38
2021/12/05 07:42:06;;;;;;;42.77;13.67;;;;;;;3.62;100.00;96043.72;5094696;28;20527;-41
2021/12/05 07:44:34;;;;;;;49.10;16.67;;;;;;;3.51;100.00;96049.63;5094640;28;20431;-41
2021/12/05 07:47:02;;;;;;;43.43;17.60;;;;;;;3.41;100.00;96037.75;5094862;28;20837;-41
2021/12/05 07:49:29;;;;;;;18.43;8.80;;;;;;;3.55;100.00;96046.38;5094684;28;20450;-41
2021/12/05 07:51:58;;;;;;;25.20;9.80;;;;;;;3.67;100.00;96049.94;5094727;28;20442;-41
2021/12/05 07:54:33;;;;;;;12.80;7.03;;;;;;;3.76;100.00;96049.69;5094044;28;20501;-40
2021/12/05 07:57:13;;;;;;;35.70;11.77;;;;;;;3.76;100.00;96044.44;5094342;28;20434;-40
2021/12/05 07:59:54;;;;;;;52.03;22.27;;;;;;;3.84;100.00;96059.94;5094242;28;20934;-40
2021/12/05 08:16:16;;;;;;;42.90;21.63;;;;;;;4.38;100.00;96050.66;5051461;28;20508;-40
2021/12/05 08:18:44;;;;;;;40.17;18.73;;;;;;;4.21;100.00;96015.44;5050878;28;20455;-40
2021/12/05 08:21:13;;;;;;;45.70;19.67;;;;;;;4.51;100.00;96044.50;5052090;28;20485;-40
2021/12/05 08:23:42;;;;;;;41.63;15.77;;;;;;;4.55;100.00;96026.47;5053582;28;20433;-40
2021/12/05 08:26:15;;;;;;;37.33;18.80;;;;;;;4.70;100.00;96019.84;5053461;28;20443;-40
2021/12/05 08:28:58;;;;;;;39.03;19.10;;;;;;;4.76;100.00;96018.16;5054384;28;20580;-40
2021/12/05 08:31:35;;;;;;;57.63;26.53;;;;;;;4.71;99.34;96031.16;5053667;28;20449;-39
2021/12/05 08:34:20;;;;;;;44.60;21.90;;;;;;;4.66;100.00;96023.91;5053446;28;20472;-39
2021/12/05 08:40:11;;;;;;;44.07;18.07;;;;;;;4.78;100.00;96034.53;5053101;28;20551;-40
2021/12/05 09:21:48;;;;;;;38.40;17.83;;;;;;;6.56;94.02;96010.47;5092782;28;20497;-38
2021/12/05 09:24:36;;;;;;;37.83;20.20;;;;;;;6.77;94.17;96001.16;5092766;28;20518;-38
2021/12/05 10:03:33;;;;;;;30.07;14.27;;;;;;;6.38;97.05;95971.81;5092044;28;20909;-37
2021/12/05 10:08:51;;;;;;;16.73;9.80;;;;;;;6.58;97.36;95979.38;5091998;28;20439;-41
2021/12/05 10:11:30;;;;;;;17.30;8.90;;;;;;;6.70;96.79;95968.81;5091706;28;20434;-40
2021/12/05 10:16:53;;;;;;;21.00;11.70;;;;;;;7.02;96.10;95965.78;5089106;28;20543;-41
2021/12/05 10:34:34;;;;;;;15.70;9.20;;;;;;;7.21;94.74;95946.09;5111275;28;20810;-40
2021/12/05 10:37:09;;;;;;;10.70;7.17;;;;;;;7.35;93.93;95955.31;5111243;28;20435;-40
2021/12/05 10:39:39;;;;;;;17.40;11.23;;;;;;;7.20;93.36;95947.13;5111102;28;20910;-37
2021/12/05 10:42:36;;;;;;;10.33;6.30;;;;;;;7.31;92.73;95951.59;5111234;28;20854;-37
2021/12/05 10:45:06;;;;;;;16.40;9.93;;;;;;;7.28;93.67;95949.41;5111027;28;20426;-37
2021/12/05 10:47:39;;;;;;;11.27;7.03;;;;;;;7.21;94.66;95934.75;5111163;28;20522;-37
2021/12/05 10:50:28;;;;;;;16.83;9.90;;;;;;;6.95;96.45;95940.31;5110822;28;20438;-37
2021/12/05 10:53:31;;;;;;;16.23;9.53;;;;;;;6.74;96.07;95933.03;5111102;28;20452;-37
2021/12/05 10:56:13;;;;;;;28.23;15.50;;;;;;;6.64;98.35;95938.09;5110731;28;20503;-37
2021/12/05 10:58:45;;;;;;;17.30;11.80;;;;;;;6.50;98.87;95927.00;5110798;28;20466;-38
2021/12/05 11:01:21;;;;;;;20.30;11.93;;;;;;;6.37;98.74;95928.03;5110639;28;20992;-40
2021/12/05 11:03:51;;;;;;;26.73;9.07;;;;;;;6.28;99.60;95924.13;5110654;28;20426;-38
2021/12/05 11:06:25;;;;;;;26.77;13.07;;;;;;;6.28;99.93;95913.59;5110581;28;20453;-38
2021/12/05 11:08:56;;;;;;;22.47;11.87;;;;;;;6.28;100.00;95913.59;5111369;28;20432;-38
2021/12/05 11:11:25;;;;;;;28.87;13.80;;;;;;;6.28;100.00;95905.69;5110549;28;20445;-38
2021/12/05 11:13:53;;;;;;;26.80;12.87;;;;;;;6.10;100.00;95896.84;5110388;28;20446;-38
2021/12/05 11:16:40;;;;;;;27.57;14.10;;;;;;;6.11;100.00;95906.38;5110351;28;20498;-38
2021/12/05 11:19:14;;;;;;;32.17;17.10;;;;;;;6.03;100.00;95896.19;5110280;28;20526;-38
2021/12/05 11:21:47;;;;;;;39.27;19.43;;;;;;;6.05;100.00;95894.13;5110100;28;20500;-38
2021/12/05 11:24:23;;;;;;;53.13;18.47;;;;;;;6.00;100.00;95887.94;5110213;28;20914;-38
2021/12/05 11:27:11;;;;;;;29.70;14.43;;;;;;;5.96;100.00;95895.50;5110215;28;20436;-38
2021/12/05 11:29:51;;;;;;;28.97;14.23;;;;;;;6.08;100.00;95893.66;5110120;28;20437;-38
2021/12/05 11:32:22;;;;;;;27.30;13.33;;;;;;;6.10;100.00;95886.31;5104659;28;20796;-38
2021/12/05 11:34:50;;;;;;;28.27;12.47;;;;;;;6.10;100.00;95878.41;5096865;28;20431;-38
2021/12/05 11:37:17;;;;;;;39.20;19.23;;;;;;;6.06;100.00;95872.00;5097535;28;20778;-38
2021/12/05 11:39:44;;;;;;;26.90;11.03;;;;;;;6.10;100.00;95883.69;5096674;28;20443;-38
2021/12/05 11:42:17;;;;;;;25.80;12.47;;;;;;;6.21;100.00;95876.81;5096608;28;20573;-38
2021/12/05 11:44:46;;;;;;;27.47;11.70;;;;;;;6.22;100.00;95883.69;5096300;28;20427;-38
2021/12/05 11:47:15;;;;;;;32.30;12.97;;;;;;;6.31;100.00;95886.78;5096219;28;20450;-38
2021/12/05 11:49:43;;;;;;;28.17;14.50;;;;;;;6.36;100.00;95878.97;5096461;28;20784;-38
2021/12/05 11:52:11;;;;;;;24.63;12.47;;;;;;;6.35;100.00;95872.91;5096090;28;20449;-38
2021/12/05 11:54:41;;;;;;;32.87;17.67;;;;;;;6.38;100.00;95874.25;5096344;28;20443;-38
2021/12/05 11:57:11;;;;;;;35.43;14.27;;;;;;;6.22;100.00;95846.00;5097447;28;20759;-38
2021/12/05 11:59:42;;;;;;;26.33;14.20;;;;;;;6.27;100.00;95862.69;5096197;28;20442;-38
2021/12/05 12:02:12;;;;;;;26.77;14.13;;;;;;;6.22;100.00;95867.09;5096183;28;21009;-38
2021/12/05 12:04:47;;;;;;;32.70;12.77;;;;;;;6.18;100.00;95866.72;5095894;28;20470;-38
2021/12/05 12:07:24;;;;;;;25.00;11.83;;;;;;;6.04;100.00;95860.88;5095858;28;20525;-38
2021/12/05 12:09:55;;;;;;;25.07;14.10;;;;;;;6.08;100.00;95869.13;5096090;28;20439;-38
2021/12/05 12:12:23;;;;;;;31.13;13.00;;;;;;;5.93;100.00;95869.56;5095812;28;20505;-38
2021/12/05 12:14:52;;;;;;;39.87;18.13;;;;;;;5.97;100.00;95870.75;5095984;28;20446;-38
2021/12/05 12:17:19;;;;;;;30.17;16.43;;;;;;;5.87;100.00;95860.75;5095978;28;20443;-38
2021/12/05 12:19:48;;;;;;;58.90;18.80;;;;;;;5.81;100.00;95863.47;5095605;28;20478;-38
2021/12/05 12:22:19;;;;;;;32.90;14.60;;;;;;;5.69;100.00;95855.59;5095577;28;20985;-38
2021/12/05 12:24:50;;;;;;;93.27;21.10;;;;;;;5.47;100.00;95844.81;5095770;28;20466;-38
2021/12/05 12:27:18;;;;;;;71.60;15.07;;;;;;;5.51;100.00;95840.69;5095463;28;20942;-38
2021/12/05 12:29:46;;;;;;;67.53;26.70;;;;;;;5.51;100.00;95840.69;5095392;28;20442;-38
2021/12/05 12:32:18;;;;;;;31.40;13.10;;;;;;;5.44;100.00;95824.19;5095629;28;20447;-38
2021/12/05 12:34:46;;;;;;;75.90;17.03;;;;;;;5.52;100.00;95839.66;5095339;28;20427;-37
2021/12/05 12:37:15;;;;;;;92.50;21.57;;;;;;;5.44;100.00;95832.91;5095483;28;20451;-39
2021/12/05 12:39:45;;;;;;;47.77;24.97;;;;;;;5.48;100.00;95836.66;5095226;28;20438;-38
2021/12/05 12:42:18;;;;;;;62.53;25.87;;;;;;;5.49;100.00;95834.84;5095010;28;20487;-38
2021/12/05 12:45:13;;;;;;;45.03;17.73;;;;;;;5.49;100.00;95842.75;5094104;28;20526;-38
2021/12/05 12:47:44;;;;;;;58.83;15.60;;;;;;;5.57;100.00;95841.59;5095360;28;20436;-38
2021/12/05 12:50:25;;;;;;;52.30;15.00;;;;;;;5.60;100.00;95841.16;5094978;28;20431;-38
2021/12/05 12:53:06;;;;;;;33.23;11.87;;;;;;;5.51;100.00;95836.22;5095562;28;20438;-38
2021/12/05 12:55:37;;;;;;;49.07;14.23;;;;;;;5.50;100.00;95831.19;5094879;28;20443;-38
2021/12/05 12:58:07;;;;;;;32.93;14.60;;;;;;;5.36;100.00;95816.66;5095164;28;20454;-38
2021/12/05 13:00:37;;;;;;;57.40;20.10;;;;;;;5.54;100.00;95824.44;5094704;28;20449;-38
2021/12/05 13:03:26;;;;;;;80.67;25.13;;;;;;;5.55;100.00;95831.31;5095324;28;20462;-38
2021/12/05 13:11:50;;;;;;;60.77;20.30;;;;;;;5.75;100.00;95842.31;5094622;28;20433;-38
2021/12/05 13:14:19;;;;;;;32.60;15.83;;;;;;;5.79;100.00;95840.03;5094557;28;20910;-38
2021/12/05 13:16:47;;;;;;;30.30;13.97;;;;;;;5.85;100.00;95857.56;5094708;28;20818;-39
2021/12/05 13:19:19;;;;;;;29.37;15.73;;;;;;;5.96;100.00;95853.34;5094728;28;20449;-39
2021/12/05 13:21:49;;;;;;;84.97;38.47;;;;;;;6.05;100.00;95841.41;5094226;28;20526;-38
2021/12/05 13:24:25;;;;;;;45.10;19.30;;;;;;;6.03;100.00;95843.47;5094612;28;20427;-38
2021/12/05 13:26:56;;;;;;;35.03;14.37;;;;;;;6.06;100.00;95843.00;5094680;28;20485;-38
2021/12/05 13:29:26;;;;;;;28.87;12.50;;;;;;;6.10;100.00;95843.34;5095353;28;20536;-38
2021/12/05 13:31:57;;;;;;;33.33;17.77;;;;;;;6.14;100.00;95845.28;5091115;28;20442;-39
2021/12/05 13:34:44;;;;;;;28.27;13.83;;;;;;;6.14;100.00;95845.28;5092143;28;20945;-39
2021/12/05 13:37:25;;;;;;;22.97;11.30;;;;;;;6.06;100.00;95853.53;5092423;28;20431;-39
2021/12/05 13:39:55;;;;;;;33.73;14.60;;;;;;;6.05;100.00;95861.72;5092376;28;20763;-38
2021/12/05 13:42:24;;;;;;;23.80;13.60;;;;;;;6.03;100.00;95847.97;5091894;28;20497;-39
2021/12/05 13:45:13;;;;;;;30.30;12.70;;;;;;;6.04;100.00;95846.91;5091831;28;20800;-39
2021/12/05 13:47:46;;;;;;;27.23;16.27;;;;;;;6.09;100.00;95852.31;5092216;28;20783;-39
2021/12/05 13:50:34;;;;;;;23.50;12.47;;;;;;;6.12;100.00;95846.56;5091969;28;20919;-39
2021/12/05 13:53:21;;;;;;;45.53;17.43;;;;;;;6.11;100.00;95851.03;5091822;28;20435;-38
2021/12/05 13:55:59;;;;;;;26.00;14.37;;;;;;;6.05;100.00;95846.69;5091808;28;20453;-38
2021/12/05 13:58:29;;;;;;;30.00;13.60;;;;;;;6.08;100.00;95845.41;5091513;28;20435;-39
2021/12/05 14:01:00;;;;;;;35.70;16.83;;;;;;;6.07;100.00;95834.09;5091566;28;20443;-39
2021/12/05 14:03:56;;;;;;;40.43;16.10;;;;;;;6.17;100.00;95851.13;5091761;28;20431;-38
2021/12/05 14:06:53;;;;;;;31.07;14.10;;;;;;;6.19;100.00;95846.44;5082816;28;20446;-39
2021/12/05 14:09:36;;;;;;;27.50;12.30;;;;;;;6.05;100.00;95845.91;5091247;28;20480;-39
2021/12/05 14:12:08;;;;;;;55.27;22.10;;;;;;;5.99;100.00;95844.97;5091562;28;20428;-39
2021/12/05 14:14:40;;;;;;;27.57;11.90;;;;;;;5.91;100.00;95856.63;5091567;28;20446;-38
2021/12/05 14:17:11;;;;;;;34.77;12.57;;;;;;;5.90;100.00;95830.53;5091806;28;20519;-39
2021/12/05 14:19:41;;;;;;;44.17;12.10;;;;;;;5.94;100.00;95839.56;5091797;28;20427;-38
2021/12/05 14:22:13;;;;;;;40.40;18.70;;;;;;;5.80;100.00;95841.63;5090840;28;20973;-39
2021/12/05 14:24:42;;;;;;;73.83;18.93;;;;;;;5.65;100.00;95826.25;5091817;28;20427;-39
2021/12/05 14:27:14;;;;;;;40.97;16.60;;;;;;;5.59;100.00;95832.44;5091649;28;20461;-39
2021/12/05 14:29:45;;;;;;;48.77;11.20;;;;;;;5.51;100.00;95830.16;5091464;28;20431;-39
2021/12/05 14:32:14;;;;;;;87.07;25.00;;;;;;;5.40;100.00;95834.38;5091314;28;20432;-39
2021/12/05 14:34:44;;;;;;;91.33;31.53;;;;;;;5.31;100.00;95826.03;5091583;28;20443;-39
2021/12/05 14:37:15;;;;;;;41.33;13.97;;;;;;;5.23;100.00;95843.97;5090815;28;20443;-38
2021/12/05 14:39:45;;;;;;;40.67;12.20;;;;;;;5.09;100.00;95848.59;5091617;28;20427;-39
2021/12/05 14:42:16;;;;;;;16.83;9.37;;;;;;;5.03;100.00;95849.50;5091432;28;20486;-38
2021/12/05 14:44:45;;;;;;;39.53;16.83;;;;;;;5.09;100.00;95854.66;5091678;28;20548;-38
2021/12/05 14:47:15;;;;;;;80.70;22.93;;;;;;;5.09;100.00;95853.88;5091690;28;20518;-38
2021/12/05 14:49:44;;;;;;;48.93;20.27;;;;;;;5.10;100.00;95863.38;5090728;28;20873;-39
2021/12/05 14:52:18;;;;;;;61.90;23.13;;;;;;;5.16;100.00;95865.09;5091118;28;20454;-39
2021/12/05 14:54:46;;;;;;;85.03;25.63;;;;;;;5.17;100.00;95861.44;5091247;28;20437;-38
2021/12/05 14:57:18;;;;;;;67.53;25.03;;;;;;;5.19;100.00;95864.66;5091227;28;20446;-39
2021/12/05 14:59:48;;;;;;;52.17;22.20;;;;;;;5.23;100.00;95870.28;5091415;28;20434;-39
2021/12/05 15:02:18;;;;;;;78.70;17.10;;;;;;;5.26;100.00;95870.63;5090683;28;20490;-39
2021/12/05 15:04:48;;;;;;;136.20;41.40;;;;;;;5.25;100.00;95874.28;5091314;28;20443;-38
2021/12/05 15:07:20;;;;;;;80.07;17.47;;;;;;;5.22;100.00;95877.34;5091662;28;20449;-39
2021/12/05 15:09:50;;;;;;;115.30;22.50;;;;;;;5.16;100.00;95891.41;5094931;28;20420;-39
2021/12/05 15:12:20;;;;;;;47.67;18.53;;;;;;;5.03;100.00;95888.97;5095186;28;20535;-38
2021/12/05 15:14:49;;;;;;;67.60;20.23;;;;;;;4.79;100.00;95886.22;5094650;28;20438;-38
2021/12/05 15:17:20;;;;;;;178.67;60.43;;;;;;;4.69;100.00;95891.22;5094932;28;20504;-39
2021/12/05 15:19:52;;;;;;;87.10;22.23;;;;;;;4.67;100.00;95899.31;5095022;28;20511;-39
2021/12/05 15:22:21;;;;;;;27.97;12.60;;;;;;;4.59;100.00;95890.94;5094465;28;20560;-38
2021/12/05 15:24:53;;;;;;;37.93;21.10;;;;;;;4.70;100.00;95903.34;5094535;28;20453;-39
2021/12/05 15:27:23;;;;;;;128.83;40.33;;;;;;;4.75;100.00;95900.84;5094759;28;20419;-39
2021/12/05 15:29:53;;;;;;;97.17;25.43;;;;;;;4.67;100.00;95909.06;5094285;28;20442;-39
2021/12/05 15:32:22;;;;;;;76.13;21.93;;;;;;;4.65;100.00;95900.56;5094730;28;20443;-39
2021/12/05 15:34:52;;;;;;;70.43;15.17;;;;;;;4.71;100.00;95900.50;5094886;28;20935;-39
2021/12/05 15:37:22;;;;;;;37.27;19.10;;;;;;;4.80;100.00;95908.88;5094623;28;20443;-39
2021/12/05 15:39:52;;;;;;;46.30;16.43;;;;;;;4.86;100.00;95902.75;5094375;28;20451;-39
2021/12/05 15:42:22;;;;;;;141.67;22.20;;;;;;;4.83;100.00;95900.53;5093672;28;20487;-39
2021/12/05 15:44:51;;;;;;;59.43;17.00;;;;;;;4.78;100.00;95902.25;5094257;28;20427;-39
2021/12/05 15:47:21;;;;;;;51.90;18.20;;;;;;;4.75;100.00;95906.09;5094115;28;20454;-39